エースパイロット ご搭乗!!

LUXURY FLIGHT

080-7560-1817

羽田空港本店: 所在地: 東京都大田区羽田空港3-3-2    セントレア店: 所在地: 愛知県常滑市セントレア1-1      HICityファイター店: 所在地: 東京都大田区羽田空港1-1-4
           第1旅客ターミナル5階                  FLIGHT OF DREAMS FLIGHT PARK                 HANEDA INNOVATION CITY ZONE-J 2-5
      営業時間: 10:00~20:00 定休日: 年中無休         営業時間: 10:00~20:00 定休日: 年中無休             営業時間: 10:00~20:00 定休日: 年中無休
      電話番号: 080-7560-1817                  電話番号: 080-4945-5666                     電話番号: 03-5579-7980

lv

エースパイロット ご搭乗!!

STAFF BLOG

2020/11/16 エースパイロット ご搭乗!!

ファイター店より、おはようございまっす!

 

本日の羽田周辺のメターはといいますと

RJTT 160100Z 36005KT 9999 FEW030 16/08 Q1023 NOSIG
RJTT 160030Z 01007KT 9999 FEW030 16/08 Q1024 NOSIG RMK 1CU030 A3024
RJTT 160000Z 36005KT 9999 FEW030 15/08 Q1024 NOSIG RMK 1CU030 A3024
と風は比較的に穏やかで、末尾のA3024からも、今日の関東平野には高気圧が覆っているみたいですね!今日は一日いい天気になりそうです

 

さて、昨日のお客様は、お昼ごろに当日ふらっと足を運んでくださりました、Tさま!!

 

お話を聞くとかなりのエースコンバットのファンのお方で、来ていたジャケットも、

Ace Combatで限定発売されていたものとのことです! 超カッコいい

 

img_3427

 

そのように戦闘機を愛していらっしゃるTさま、昨日のお昼の時間はご予約が立て込んでいて

遅いお時間でのご案内となってしまうのにも関わらず、ご快諾いただきまして、いざLET’S GO~~~

本日は、ドローン撃墜 及び空母着艦コースに挑戦です

 

早速シミュレータールームへと入ると一言、

Tさま「ゲームで見ていたF/A-18が、目の前にある!これはやべぇ~」

 

勿論、Tさま普段より戦闘機の操縦をされておりますので、離陸は すーぱー・すむーず・ていくおふ

 

10分程でF/A-18の操縦感覚になれていただきまして、早速、ドローンの撃墜です!!

正面に敵を出し追いかけて撃墜する基本機動から、相手も動く応用編まで様々なシチュエーションで

ミッションに出撃して頂きました

 

img_3428

 

だんだんと難しくなっていくミッションに対し、

Tさま「実際にロックオンするってこんなに大変なのか、自分の姿勢や、速度、そして相手の動きも考えないといけないのか。。。うーーーーむ 奥深い。。。」

とすぐさま修正に必要な部分をご理解し、即実践をされていくそのお姿、

 

正に エースパイロットです。

 

最終的には全ての敵機を撃墜し、無事、ドローン撃墜 ミッションコンプリートです

私の眼は、前も見つつも、Tさまの背中のカッコいいロゴマークをロックオンしてしまったのは内緒です(笑)

 

 

さーてさて、いよいよミッションも終盤に移りまして、つづきましては、空母着艦に挑戦です。

実は私はまだ出来ていないのですが、エースコンバットの最新作では、ミッション3に空母着艦があるとのことで、かなり練習してきたとのこと!

 

最初は、まっすぐに空母へとアプローチすることが難しく、なかなか甲板までたどり着く事ができませんでしたが、少しづつ、少しづつ上達されました

 

img_3436

 

結果としては、残念ながら着艦する事はできませんでしたが、

Tさま「ちきしょう!!!空母に着艦できなくて悔しい。。でもそれが面白いんだ

   また近いうちに必ずくるぞ~~ リベンジだと、

着艦マスターを目指されることを宣言されておりました

 

 

Tさま昨日はご来店頂きまして誠にありがとうございました!!

また本来のご意向に沿うことが出来なかったのにも関わらず、お時間のご調整いただきました事、重ねて大変感謝致します。

 

またお時間ある際にふらっと立ち寄って頂ける事を、スタッフ一同楽しみにお待ちいたしております!

次回は、バシっっと、着艦決めましょうね!!!!!

 

ちなみに、、、、その後の別のお客様も、Tさまと同じ、限定エースコンバットジャケットの色違いを着ている方がご来店されました。なんという偶然。。。。 

勿論、私の目が釘付けになったのは、言うまでもありません(笑)

 

img_3449

 

 

戦闘機の操縦は、難しそう!!と思われるお客様もいらっしゃるかもしれませんが、

元戦闘機乗りのアドバイザーがお客様のご経験や知識に合わせて、一つ一つ丁寧にご説明いたしますので、

どうぞお気軽にご来店下さいませ

 

皆さま、いつもお読みいただきまして、本当にありがとうございます!!!

引き続き、LUXURY FLIGHTを どうぞ宜しくお願いいたします!!!!

 

「感謝」

TOP